createdAt,value
2022-08-02T00:02:20.598Z,101157.50
2022-08-02T00:04:47.089Z,101157.78
2022-08-02T00:07:13.438Z,101147.16
2022-08-02T00:09:39.747Z,101146.06
2022-08-02T00:12:06.207Z,101150.69
2022-08-02T00:14:33.307Z,101148.22
2022-08-02T00:16:59.763Z,101154.50
2022-08-02T00:19:26.071Z,101150.94
2022-08-02T00:21:52.570Z,101146.34
2022-08-02T00:24:29.241Z,101143.63
2022-08-02T00:26:56.743Z,101143.63
2022-08-02T00:29:23.357Z,101131.09
2022-08-02T00:31:49.817Z,101138.44
2022-08-02T00:34:30.988Z,101133.81
2022-08-02T00:36:59.298Z,101142.00
2022-08-02T00:39:34.908Z,101133.00
2022-08-02T00:42:02.177Z,101134.09
2022-08-02T00:44:28.709Z,101147.69
2022-08-02T00:46:55.083Z,101138.69
2022-08-02T00:49:21.619Z,101141.41
2022-08-02T00:51:48.068Z,101146.84
2022-08-02T00:54:14.542Z,101141.41
2022-08-02T00:56:40.883Z,101151.25
2022-08-02T00:59:16.371Z,101156.09
2022-08-02T01:01:55.683Z,101151.50
2022-08-02T01:04:30.054Z,101153.38
2022-08-02T01:06:58.071Z,101151.50
2022-08-02T01:09:24.598Z,101152.59
2022-08-02T01:11:51.974Z,101157.19
2022-08-02T01:14:18.298Z,101156.38
2022-08-02T01:16:44.721Z,101152.84
2022-08-02T01:19:16.037Z,101155.56
2022-08-02T01:21:42.713Z,101157.19
2022-08-02T01:24:09.360Z,101154.75
2022-08-02T01:26:35.991Z,101156.63
2022-08-02T01:29:02.372Z,101154.75
2022-08-02T01:31:28.999Z,101148.47
2022-08-02T01:33:55.557Z,101155.84
2022-08-02T01:36:22.229Z,101157.72
2022-08-02T01:38:49.013Z,101154.19
2022-08-02T01:41:15.381Z,101150.41
2022-08-02T01:43:41.965Z,101153.13
2022-08-02T01:46:08.495Z,101160.44
2022-08-02T01:48:34.987Z,101159.63
2022-08-02T01:51:01.371Z,101149.81
2022-08-02T01:53:27.799Z,101153.38
2022-08-02T01:55:56.788Z,101152.28
2022-08-02T01:58:25.487Z,101153.38
2022-08-02T02:00:51.890Z,101162.38
2022-08-02T02:03:18.359Z,101161.28
2022-08-02T02:05:44.925Z,101171.31
2022-08-02T02:08:11.377Z,101160.69
2022-08-02T02:10:37.729Z,101162.63
2022-08-02T02:13:04.506Z,101164.25
2022-08-02T02:15:31.567Z,101166.97
2022-08-02T02:18:12.529Z,101152.53
2022-08-02T02:20:40.093Z,101165.34
2022-08-02T02:23:06.787Z,101165.34
2022-08-02T02:25:35.900Z,101158.25
2022-08-02T02:28:07.813Z,101160.69
2022-08-02T02:30:34.203Z,101164.50
2022-08-02T02:33:00.587Z,101168.88
2022-08-02T02:35:27.079Z,101163.69
2022-08-02T02:37:53.483Z,101170.78
2022-08-02T02:40:20.002Z,101173.50
2022-08-02T02:42:49.194Z,101173.75
2022-08-02T02:45:15.961Z,101168.06
2022-08-02T02:47:42.332Z,101169.13
2022-08-02T02:50:08.745Z,101173.75
2022-08-02T02:52:35.191Z,101171.84
2022-08-02T02:55:02.014Z,101170.22
2022-08-02T02:57:28.650Z,101172.13
2022-08-02T02:59:54.975Z,101178.38
2022-08-02T03:02:21.283Z,101168.59
2022-08-02T03:04:55.661Z,101171.31
2022-08-02T03:07:24.018Z,101163.16
2022-08-02T03:09:54.601Z,101172.94
2022-08-02T03:12:21.343Z,101173.75
2022-08-02T03:14:49.389Z,101181.91
2022-08-02T03:17:15.959Z,101186.00
2022-08-02T03:19:42.346Z,101186.78
2022-08-02T03:22:08.991Z,101194.94
2022-08-02T03:24:35.481Z,101197.66
2022-08-02T03:27:01.877Z,101188.72
2022-08-02T03:29:30.443Z,101183.28
2022-08-02T03:32:00.421Z,101189.81
2022-08-02T03:34:26.694Z,101189.81
2022-08-02T03:36:52.999Z,101184.38
2022-08-02T03:39:19.357Z,101186.00
2022-08-02T03:41:45.711Z,101190.59
2022-08-02T03:44:12.013Z,101185.41
2022-08-02T03:46:38.325Z,101186.50
2022-08-02T03:49:04.857Z,101187.34
2022-08-02T03:51:31.373Z,101193.84
2022-08-02T03:53:57.739Z,101193.03
2022-08-02T03:56:24.040Z,101196.56
2022-08-02T03:58:50.406Z,101197.38
2022-08-02T04:01:16.979Z,101210.97
2022-08-02T04:03:43.445Z,101216.41
2022-08-02T04:06:09.780Z,101211.25
2022-08-02T04:08:38.310Z,101216.69
2022-08-02T04:11:04.958Z,101226.75
2022-08-02T04:13:34.433Z,101229.19
2022-08-02T04:16:02.464Z,101237.34
2022-08-02T04:18:28.792Z,101232.19
2022-08-02T04:20:55.321Z,101237.63
2022-08-02T04:23:21.779Z,101239.25
2022-08-02T04:25:48.315Z,101248.78
2022-08-02T04:28:18.246Z,101250.41
2022-08-02T04:30:45.046Z,101250.66
2022-08-02T04:33:11.382Z,101247.94
2022-08-02T04:35:37.670Z,101259.66
2022-08-02T04:38:09.860Z,101256.94
2022-08-02T04:40:37.033Z,101259.91
2022-08-02T04:43:03.586Z,101254.47
2022-08-02T04:45:29.926Z,101255.25
2022-08-02T04:48:04.536Z,101265.09
2022-08-02T04:50:31.618Z,101264.81
2022-08-02T04:52:57.965Z,101271.38
2022-08-02T04:55:24.292Z,101262.13
2022-08-02T04:57:52.502Z,101265.09
2022-08-02T05:00:19.511Z,101264.31
2022-08-02T05:02:46.006Z,101270.03
2022-08-02T05:05:12.519Z,101265.13
2022-08-02T05:07:38.928Z,101272.22
2022-08-02T05:10:05.374Z,101266.50
2022-08-02T05:12:31.683Z,101266.50
2022-08-02T05:14:58.034Z,101270.59
2022-08-02T05:17:24.496Z,101268.69
2022-08-02T05:19:50.787Z,101270.84
2022-08-02T05:22:17.109Z,101274.13
2022-08-02T05:24:43.487Z,101277.38
2022-08-02T05:27:17.146Z,101278.19
2022-08-02T05:29:51.245Z,101283.91
2022-08-02T05:32:20.248Z,101277.66
2022-08-02T05:34:47.762Z,101281.72
2022-08-02T05:37:15.339Z,101276.81
2022-08-02T05:39:55.559Z,101282.53
2022-08-02T05:42:22.470Z,101290.91
2022-08-02T05:44:48.825Z,101289.78
2022-08-02T05:47:15.168Z,101294.38
2022-08-02T05:49:41.595Z,101293.56
2022-08-02T05:52:08.080Z,101301.72
2022-08-02T05:54:34.685Z,101294.38
2022-08-02T05:57:02.472Z,101300.66
2022-08-02T05:59:28.845Z,101304.19
2022-08-02T06:01:55.194Z,101311.53
2022-08-02T06:04:21.605Z,101307.97
2022-08-02T06:06:48.026Z,101307.16
2022-08-02T06:09:14.619Z,101309.63
2022-08-02T06:11:40.908Z,101314.00
2022-08-02T06:14:07.196Z,101304.44
2022-08-02T06:16:33.502Z,101307.72
2022-08-02T06:19:08.301Z,101315.88
2022-08-02T06:22:34.458Z,101312.06
2022-08-02T06:24:21.121Z,101312.06
2022-08-02T06:26:47.459Z,101314.00
2022-08-02T06:29:13.779Z,101314.81
2022-08-02T06:31:40.313Z,101307.72
2022-08-02T06:34:06.658Z,101313.72
2022-08-02T06:36:33.053Z,101314.00
2022-08-02T06:38:59.545Z,101322.94
2022-08-02T06:41:25.900Z,101319.16
2022-08-02T06:43:52.357Z,101311.00
2022-08-02T06:46:57.208Z,101325.66
2022-08-02T06:49:05.240Z,101322.94
2022-08-02T06:51:31.748Z,101323.78
2022-08-02T06:53:58.230Z,101322.69
2022-08-02T06:56:24.991Z,101324.59
2022-08-02T06:58:51.459Z,101317.25
2022-08-02T07:01:18.069Z,101315.63
2022-08-02T07:03:44.473Z,101311.00
2022-08-02T07:06:10.874Z,101314.53
2022-08-02T07:08:37.314Z,101320.25
2022-08-02T07:11:03.843Z,101311.00
2022-08-02T07:13:31.556Z,101315.38
2022-08-02T07:15:58.013Z,101312.66
2022-08-02T07:18:24.403Z,101307.22
2022-08-02T07:20:50.755Z,101306.38
2022-08-02T07:23:17.137Z,101308.00
2022-08-02T07:26:02.340Z,101306.13
2022-08-02T07:28:30.181Z,101308.84
2022-08-02T07:30:56.548Z,101305.03
2022-08-02T07:33:37.805Z,101312.66
2022-08-02T07:36:06.061Z,101303.41
2022-08-02T07:38:35.339Z,101305.03
2022-08-02T07:41:04.038Z,101295.00
2022-08-02T07:43:30.397Z,101302.31
2022-08-02T07:46:00.913Z,101293.34
2022-08-02T07:48:27.437Z,101293.34
2022-08-02T07:50:53.831Z,101295.00
2022-08-02T07:53:20.347Z,101295.00
2022-08-02T07:56:06.730Z,101293.06
2022-08-02T07:58:33.301Z,101290.34
2022-08-02T08:00:59.684Z,101284.13
2022-08-02T08:03:26.093Z,101292.28
2022-08-02T08:05:52.689Z,101283.84
2022-08-02T08:08:19.059Z,101283.03
2022-08-02T08:10:45.506Z,101292.03
2022-08-02T08:13:11.819Z,101293.66
2022-08-02T08:15:38.170Z,101286.59
2022-08-02T08:18:04.946Z,101281.16
2022-08-02T08:20:31.317Z,101284.97
2022-08-02T08:22:57.900Z,101286.88
2022-08-02T08:25:24.266Z,101283.88
2022-08-02T08:27:53.802Z,101284.69
2022-08-02T08:30:20.263Z,101285.78
2022-08-02T08:32:46.682Z,101288.25
2022-08-02T08:35:13.016Z,101288.78
2022-08-02T08:37:39.336Z,101293.97
2022-08-02T08:40:05.693Z,101292.06
2022-08-02T08:42:32.409Z,101291.25
2022-08-02T08:44:59.256Z,101283.09
2022-08-02T08:47:25.778Z,101281.19
2022-08-02T08:49:52.673Z,101280.09
2022-08-02T08:52:19.510Z,101279.84
2022-08-02T08:54:46.005Z,101273.31
2022-08-02T08:57:15.023Z,101283.94
2022-08-02T08:59:42.473Z,101275.53
2022-08-02T09:02:20.324Z,101286.41
2022-08-02T09:04:53.568Z,101279.63
2022-08-02T09:07:21.107Z,101281.78
2022-08-02T09:09:47.539Z,101284.22
2022-08-02T09:12:14.396Z,101280.44
2022-08-02T09:14:40.967Z,101277.47
2022-08-02T09:17:07.735Z,101263.88
2022-08-02T09:19:34.224Z,101270.94
2022-08-02T09:22:00.676Z,101275.28
2022-08-02T09:24:27.115Z,101276.13
2022-08-02T09:26:59.564Z,101268.75
2022-08-02T09:29:25.927Z,101269.84
2022-08-02T09:31:52.838Z,101269.59
2022-08-02T09:34:19.870Z,101275.81
2022-08-02T09:36:46.635Z,101277.50
2022-08-02T09:39:13.013Z,101263.06
2022-08-02T09:41:39.321Z,101266.59
2022-08-02T09:44:06.758Z,101266.59
2022-08-02T09:46:33.357Z,101263.88
2022-08-02T09:49:00.215Z,101252.75
2022-08-02T09:51:26.559Z,101260.06
2022-08-02T09:54:06.080Z,101258.19
2022-08-02T09:56:35.729Z,101255.47
2022-08-02T09:59:02.613Z,101253.81
2022-08-02T10:01:37.143Z,101248.09
2022-08-02T10:04:04.427Z,101248.94
2022-08-02T10:06:30.979Z,101239.94
2022-08-02T10:08:57.831Z,101241.56
2022-08-02T10:11:24.151Z,101240.50
2022-08-02T10:13:50.705Z,101238.06
2022-08-02T10:16:17.224Z,101239.41
2022-08-02T10:18:43.551Z,101236.97
2022-08-02T10:21:09.913Z,101236.69
2022-08-02T10:23:36.523Z,101236.97
2022-08-02T10:26:02.797Z,101237.78
2022-08-02T10:28:29.259Z,101227.72
2022-08-02T10:30:55.610Z,101232.09
2022-08-02T10:33:21.982Z,101225.81
2022-08-02T10:35:48.450Z,101219.28
2022-08-02T10:38:31.140Z,101219.28
2022-08-02T10:40:57.513Z,101210.88
2022-08-02T10:43:23.816Z,101214.69
2022-08-02T10:45:50.853Z,101226.34
2022-08-02T10:48:17.285Z,101215.47
2022-08-02T10:50:44.169Z,101213.59
2022-08-02T10:53:10.521Z,101205.44
2022-08-02T10:55:36.833Z,101216.03
2022-08-02T10:58:03.182Z,101213.31
2022-08-02T11:00:31.544Z,101207.06
2022-08-02T11:02:58.059Z,101202.44
2022-08-02T11:05:42.636Z,101202.44
2022-08-02T11:08:09.901Z,101209.50
2022-08-02T11:10:36.423Z,101201.34
2022-08-02T11:13:02.887Z,101206.78
2022-08-02T11:15:29.316Z,101202.19
2022-08-02T11:17:55.678Z,101208.41
2022-08-02T11:20:22.245Z,101205.44
2022-08-02T11:22:48.624Z,101209.25
2022-08-02T11:25:14.935Z,101214.44
2022-08-02T11:27:41.365Z,101199.19
2022-08-02T11:30:07.757Z,101206.53
2022-08-02T11:32:34.054Z,101206.53
2022-08-02T11:35:00.422Z,101198.91
2022-08-02T11:37:26.809Z,101203.53
2022-08-02T11:39:53.194Z,101203.53
2022-08-02T11:42:19.831Z,101203.28
2022-08-02T11:44:46.209Z,101191.56
2022-08-02T11:47:12.553Z,101198.66
2022-08-02T11:49:39.133Z,101193.19
2022-08-02T11:52:05.836Z,101186.97
2022-08-02T11:54:32.417Z,101182.31
2022-08-02T11:57:01.950Z,101182.31
2022-08-02T11:59:28.399Z,101174.16
2022-08-02T12:01:54.741Z,101163.28
2022-08-02T12:04:22.901Z,101163.28
2022-08-02T12:06:50.012Z,101161.13
2022-08-02T12:09:18.805Z,101157.81
2022-08-02T12:11:45.694Z,101151.31
2022-08-02T12:14:12.057Z,101149.41
2022-08-02T12:16:38.502Z,101155.69
2022-08-02T12:19:04.893Z,101156.47
2022-08-02T12:21:31.318Z,101152.94
2022-08-02T12:24:00.899Z,101146.41
2022-08-02T12:26:27.925Z,101142.59
2022-08-02T12:28:54.209Z,101136.38
2022-08-02T12:31:21.023Z,101139.09
2022-08-02T12:33:47.364Z,101142.59
2022-08-02T12:36:13.848Z,101136.38
2022-08-02T12:38:40.191Z,101142.59
2022-08-02T12:41:23.946Z,101146.16
2022-08-02T12:43:55.657Z,101138.00
2022-08-02T12:46:21.978Z,101139.88
2022-08-02T12:49:15.225Z,101145.06
2022-08-02T12:51:56.670Z,101139.63
2022-08-02T12:54:25.768Z,101137.72
2022-08-02T12:56:58.226Z,101135.81
2022-08-02T12:59:24.730Z,101140.44
2022-08-02T13:01:51.296Z,101143.97
2022-08-02T13:04:17.764Z,101138.78
2022-08-02T13:06:45.418Z,101139.34
2022-08-02T13:09:12.144Z,101140.19
2022-08-02T13:11:38.489Z,101133.66
2022-08-02T13:14:10.091Z,101130.09
2022-08-02T13:16:36.515Z,101127.38
2022-08-02T13:19:03.086Z,101122.75
2022-08-02T13:21:40.947Z,101120.88
2022-08-02T13:24:33.147Z,101116.25
2022-08-02T13:27:04.616Z,101115.16
2022-08-02T13:29:34.806Z,101117.09
2022-08-02T13:32:01.126Z,101116.78
2022-08-02T13:34:27.512Z,101109.72
2022-08-02T13:36:53.985Z,101115.47
2022-08-02T13:39:20.576Z,101108.34
2022-08-02T13:41:46.983Z,101101.03
2022-08-02T13:44:13.340Z,101103.75
2022-08-02T13:46:45.099Z,101100.75
2022-08-02T13:49:17.865Z,101098.84
2022-08-02T13:51:45.573Z,101094.22
2022-08-02T13:54:12.366Z,101091.50
2022-08-02T13:56:38.870Z,101102.13
2022-08-02T13:59:54.166Z,101094.78
2022-08-02T14:01:51.863Z,101083.91
2022-08-02T14:04:18.264Z,101084.69
2022-08-02T14:06:44.597Z,101089.34
2022-08-02T14:09:13.458Z,101081.72
2022-08-02T14:11:43.674Z,101077.09
2022-08-02T14:14:16.069Z,101077.09
2022-08-02T14:16:43.534Z,101064.28
2022-08-02T14:19:15.860Z,101060.47
2022-08-02T14:21:46.092Z,101066.75
2022-08-02T14:24:14.134Z,101052.03
2022-08-02T14:26:40.629Z,101052.03
2022-08-02T14:29:06.924Z,101052.88
2022-08-02T14:31:34.380Z,101041.72
2022-08-02T14:34:00.724Z,101058.84
2022-08-02T14:36:27.972Z,101043.34
2022-08-02T14:38:54.645Z,101051.50
2022-08-02T14:41:20.946Z,101046.88
2022-08-02T14:43:47.368Z,101033.28
2022-08-02T14:46:13.737Z,101034.91
2022-08-02T14:48:40.185Z,101030.28
2022-08-02T14:51:06.623Z,101036.53
2022-08-02T14:53:37.759Z,101031.09
2022-08-02T14:56:04.481Z,101032.72
2022-08-02T14:58:31.484Z,101027.81
2022-08-02T15:00:57.910Z,101030.53
2022-08-02T15:03:24.475Z,101031.34
2022-08-02T15:05:50.755Z,101019.66
2022-08-02T15:08:17.787Z,101025.09
2022-08-02T15:10:44.119Z,101020.44
2022-08-02T15:13:10.653Z,101021.00
2022-08-02T15:15:43.125Z,101010.38
2022-08-02T15:18:10.042Z,101014.75
2022-08-02T15:20:38.080Z,101019.13
2022-08-02T15:23:08.880Z,101014.47
2022-08-02T15:25:41.103Z,101010.66
2022-08-02T15:28:08.082Z,101008.75
2022-08-02T15:30:34.664Z,101003.31
2022-08-02T15:33:00.997Z,101000.59
2022-08-02T15:35:27.369Z,100999.50
2022-08-02T15:37:53.722Z,101007.66
2022-08-02T15:40:20.260Z,101008.50
2022-08-02T15:42:46.550Z,101013.66
2022-08-02T15:45:13.149Z,101009.28
2022-08-02T15:47:41.915Z,101004.66
2022-08-02T15:50:16.717Z,101001.69
2022-08-02T15:52:43.087Z,101012.56
2022-08-02T15:55:09.463Z,101009.84
2022-08-02T15:57:36.328Z,101000.31
2022-08-02T16:00:03.258Z,101006.59
2022-08-02T16:02:30.618Z,101003.84
2022-08-02T16:04:56.909Z,101017.19
2022-08-02T16:07:23.295Z,101008.22
2022-08-02T16:09:50.302Z,101010.94
2022-08-02T16:12:17.334Z,101010.94
2022-08-02T16:14:43.765Z,101015.28
2022-08-02T16:17:10.209Z,101011.47
2022-08-02T16:19:48.507Z,101008.72
2022-08-02T16:22:17.026Z,101013.34
2022-08-02T16:24:43.475Z,101009.28
2022-08-02T16:27:10.073Z,101008.47
2022-08-02T16:29:36.420Z,101007.66
2022-08-02T16:32:02.827Z,101001.41
2022-08-02T16:34:40.310Z,101003.03
2022-08-02T16:37:15.948Z,101002.75
2022-08-02T16:39:42.603Z,101007.38
2022-08-02T16:42:08.996Z,101000.28
2022-08-02T16:44:35.433Z,100997.56
2022-08-02T16:47:02.131Z,100992.13
2022-08-02T16:50:05.558Z,100983.97
2022-08-02T16:52:14.875Z,100990.22
2022-08-02T16:54:41.200Z,100992.94
2022-08-02T16:57:07.972Z,100987.78
2022-08-02T16:59:42.707Z,100992.94
2022-08-02T17:02:15.309Z,100985.59
2022-08-02T17:04:45.243Z,100995.69
2022-08-02T17:08:15.086Z,100988.31
2022-08-02T17:10:02.263Z,100991.84
2022-08-02T17:12:31.382Z,100988.31
2022-08-02T17:14:57.763Z,100988.31
2022-08-02T17:17:33.622Z,100983.69
2022-08-02T17:20:00.894Z,100989.13
2022-08-02T17:22:27.354Z,100986.41
2022-08-02T17:24:53.938Z,100980.13
2022-08-02T17:27:20.282Z,100984.50
2022-08-02T17:29:46.567Z,100978.25
2022-08-02T17:32:14.268Z,100977.41
2022-08-02T17:34:56.542Z,100989.97
2022-08-02T17:37:27.149Z,100984.50
2022-08-02T17:39:55.371Z,100980.69
2022-08-02T17:42:23.419Z,100988.31
2022-08-02T17:44:50.554Z,100991.84
2022-08-02T17:47:17.994Z,100994.56
2022-08-02T17:49:47.971Z,101000.84
2022-08-02T17:52:51.145Z,100993.75
2022-08-02T17:55:05.876Z,101002.75
2022-08-02T17:57:57.532Z,101000.03
2022-08-02T18:00:18.665Z,101007.09
2022-08-02T18:02:52.827Z,100999.19
2022-08-02T18:05:21.988Z,101009.03
2022-08-02T18:07:51.942Z,101001.91
2022-08-02T18:10:21.895Z,101000.03
2022-08-02T18:12:49.657Z,101011.75
2022-08-02T18:15:16.028Z,101014.47
2022-08-02T18:17:42.491Z,101016.38
2022-08-02T18:20:11.040Z,101012.81
2022-08-02T18:22:37.661Z,101016.38
2022-08-02T18:25:09.305Z,101009.28
2022-08-02T18:27:36.042Z,101016.38
2022-08-02T18:30:05.317Z,101019.09
2022-08-02T18:33:56.152Z,101014.75
2022-08-02T18:35:18.011Z,101013.63
2022-08-02T18:37:46.454Z,101025.34
2022-08-02T18:40:18.488Z,101020.19
2022-08-02T18:42:44.882Z,101019.09
2022-08-02T18:45:19.691Z,101026.16
2022-08-02T18:47:51.119Z,101020.72
2022-08-02T18:50:17.818Z,101024.25
2022-08-02T18:52:44.329Z,101032.69
2022-08-02T18:55:17.507Z,101035.16
2022-08-02T18:58:19.655Z,101037.06
2022-08-02T19:00:46.567Z,101045.22
2022-08-02T19:03:17.103Z,101040.59
2022-08-02T19:05:52.113Z,101048.22
2022-08-02T19:08:20.485Z,101056.94
2022-08-02T19:10:52.051Z,101047.94
2022-08-02T19:13:18.481Z,101058.84
2022-08-02T19:15:44.802Z,101058.03
2022-08-02T19:18:14.246Z,101053.38
2022-08-02T19:20:40.651Z,101055.31
2022-08-02T19:23:14.862Z,101053.66
2022-08-02T19:25:45.244Z,101055.31
2022-08-02T19:31:07.310Z,101064.28
2022-08-02T19:34:06.098Z,101058.31
2022-08-02T19:36:20.319Z,101057.22
2022-08-02T19:38:51.803Z,101061.81
2022-08-02T19:41:18.463Z,101059.09
2022-08-02T19:44:27.118Z,101057.22
2022-08-02T19:46:34.931Z,101061.81
2022-08-02T19:49:01.372Z,101056.69
2022-08-02T19:51:54.830Z,101066.47
2022-08-02T19:54:21.725Z,101056.69
2022-08-02T19:57:02.309Z,101060.19
2022-08-02T19:59:30.788Z,101062.94
2022-08-02T20:01:59.965Z,101066.75
2022-08-02T20:04:26.524Z,101067.56
2022-08-02T20:06:52.817Z,101068.63
2022-08-02T20:09:21.532Z,101068.63
2022-08-02T20:11:54.393Z,101065.91
2022-08-02T20:14:26.583Z,101060.47
2022-08-02T20:16:54.191Z,101066.75
2022-08-02T20:19:20.499Z,101061.56
2022-08-02T20:21:54.161Z,101067.00
2022-08-02T20:24:26.739Z,101068.63
2022-08-02T20:26:53.251Z,101070.56
2022-08-02T20:29:42.925Z,101069.72
2022-08-02T20:32:05.885Z,101067.84
2022-08-02T20:34:36.405Z,101068.09
2022-08-02T20:37:56.143Z,101067.84
2022-08-02T20:39:49.407Z,101063.50
2022-08-02T20:42:23.242Z,101069.72
2022-08-02T20:44:50.663Z,101069.72
2022-08-02T20:47:17.277Z,101071.66
2022-08-02T20:49:56.996Z,101074.38
2022-08-02T20:52:24.522Z,101077.91
2022-08-02T20:54:50.895Z,101070.00
2022-08-02T20:57:17.298Z,101078.16
2022-08-02T20:59:43.933Z,101076.81
2022-08-02T21:02:19.214Z,101077.38
2022-08-02T21:04:46.670Z,101069.22
2022-08-02T21:07:13.107Z,101069.47
2022-08-02T21:09:52.700Z,101074.09
2022-08-02T21:12:22.038Z,101068.66
2022-08-02T21:14:56.614Z,101074.66
2022-08-02T21:17:26.970Z,101063.19
2022-08-02T21:20:08.555Z,101071.09
2022-08-02T21:22:35.026Z,101076.53
2022-08-02T21:25:01.550Z,101074.09
2022-08-02T21:27:53.515Z,101070.56
2022-08-02T21:30:14.228Z,101074.09
2022-08-02T21:32:41.137Z,101070.56
2022-08-02T21:35:07.863Z,101072.47
2022-08-02T21:37:45.042Z,101070.56
2022-08-02T21:40:12.011Z,101077.63
2022-08-02T21:42:38.473Z,101073.28
2022-08-02T21:45:16.812Z,101075.19
2022-08-02T21:47:44.163Z,101064.28
2022-08-02T21:50:15.902Z,101067.03
2022-08-02T21:52:42.825Z,101064.28
2022-08-02T21:55:21.323Z,101074.34
2022-08-02T21:57:50.650Z,101067.84
2022-08-02T22:00:16.998Z,101072.47
2022-08-02T22:02:55.267Z,101079.00
2022-08-02T22:05:21.587Z,101071.91
2022-08-02T22:07:48.023Z,101069.19
2022-08-02T22:10:16.889Z,101072.72
2022-08-02T22:12:43.311Z,101079.00
2022-08-02T22:15:11.344Z,101067.28
2022-08-02T22:17:52.716Z,101079.28
2022-08-02T22:20:24.442Z,101076.56
2022-08-02T22:22:52.587Z,101078.19
2022-08-02T22:25:21.477Z,101081.16
2022-08-02T22:28:35.392Z,101085.53
2022-08-02T22:30:53.063Z,101086.63
2022-08-02T22:33:19.717Z,101088.25
2022-08-02T22:35:46.129Z,101083.88
2022-08-02T22:38:15.018Z,101085.81
2022-08-02T22:40:44.170Z,101093.97
2022-08-02T22:43:10.684Z,101087.72
2022-08-02T22:45:37.776Z,101087.72
2022-08-02T22:48:04.682Z,101093.16
2022-08-02T22:50:31.362Z,101090.44
2022-08-02T22:52:58.360Z,101099.44
2022-08-02T22:55:24.698Z,101100.22
2022-08-02T22:57:58.847Z,101098.59
2022-08-02T22:58:57.245Z,101060.75
2022-08-02T23:00:25.201Z,101096.16
2022-08-02T23:02:51.514Z,101098.06
2022-08-02T23:05:17.848Z,101104.88
2022-08-02T23:07:44.926Z,101096.72
2022-08-02T23:10:11.370Z,101102.41
2022-08-02T23:12:37.756Z,101093.16
2022-08-02T23:15:04.229Z,101093.16
2022-08-02T23:17:30.589Z,101095.06
2022-08-02T23:19:56.997Z,101090.44
2022-08-02T23:22:29.300Z,101101.06
2022-08-02T23:24:58.391Z,101088.53
2022-08-02T23:27:25.613Z,101093.69
2022-08-02T23:29:51.894Z,101087.44
2022-08-02T23:32:18.542Z,101095.88
2022-08-02T23:34:49.351Z,101090.97
2022-08-02T23:37:15.972Z,101102.41
2022-08-02T23:39:42.320Z,101099.13
2022-08-02T23:42:08.819Z,101090.69
2022-08-02T23:44:35.203Z,101087.19
2022-08-02T23:47:01.555Z,101087.97
2022-08-02T23:49:28.097Z,101094.50
2022-08-02T23:51:58.275Z,101087.44
2022-08-02T23:54:27.748Z,101089.91
2022-08-02T23:56:54.156Z,101090.44
2022-08-02T23:59:20.523Z,101087.19
